sensor_id;sensor_type;location;lat;lon;timestamp;P1;durP1;ratioP1;P2;durP2;ratioP2
60641;SDS011;46837;52.446;-1.930;2024-03-07T00:00:11;59.34;;;35.66;;
60641;SDS011;46837;52.446;-1.930;2024-03-07T00:01:07;49.08;;;30.36;;
60641;SDS011;46837;52.446;-1.930;2024-03-07T00:02:07;53.82;;;32.36;;
60641;SDS011;46837;52.446;-1.930;2024-03-07T00:03:07;55.24;;;30.08;;
60641;SDS011;46837;52.446;-1.930;2024-03-07T00:04:07;63.18;;;35.62;;
60641;SDS011;46837;52.446;-1.930;2024-03-07T00:05:07;54.12;;;30.52;;
60641;SDS011;46837;52.446;-1.930;2024-03-07T00:06:07;60.22;;;32.02;;
60641;SDS011;46837;52.446;-1.930;2024-03-07T00:07:07;57.50;;;31.50;;
60641;SDS011;46837;52.446;-1.930;2024-03-07T00:08:07;56.50;;;30.80;;
60641;SDS011;46837;52.446;-1.930;2024-03-07T00:09:07;48.44;;;28.54;;
60641;SDS011;46837;52.446;-1.930;2024-03-07T00:10:08;52.40;;;28.22;;
60641;SDS011;46837;52.446;-1.930;2024-03-07T00:11:08;49.64;;;31.02;;
60641;SDS011;46837;52.446;-1.930;2024-03-07T00:12:07;54.22;;;33.02;;
60641;SDS011;46837;52.446;-1.930;2024-03-07T00:13:07;55.66;;;31.24;;
60641;SDS011;46837;52.446;-1.930;2024-03-07T00:14:07;53.70;;;32.26;;
60641;SDS011;46837;52.446;-1.930;2024-03-07T00:15:07;64.70;;;35.16;;
60641;SDS011;46837;52.446;-1.930;2024-03-07T00:16:07;53.46;;;32.00;;
60641;SDS011;46837;52.446;-1.930;2024-03-07T00:17:07;57.10;;;33.06;;
60641;SDS011;46837;52.446;-1.930;2024-03-07T00:18:07;60.56;;;33.04;;
60641;SDS011;46837;52.446;-1.930;2024-03-07T00:19:07;51.78;;;30.58;;
60641;SDS011;46837;52.446;-1.930;2024-03-07T00:20:09;60.90;;;34.46;;
60641;SDS011;46837;52.446;-1.930;2024-03-07T00:21:07;54.84;;;31.06;;
60641;SDS011;46837;52.446;-1.930;2024-03-07T00:22:07;60.90;;;34.44;;
60641;SDS011;46837;52.446;-1.930;2024-03-07T00:23:07;59.24;;;34.04;;
60641;SDS011;46837;52.446;-1.930;2024-03-07T00:24:07;57.88;;;33.00;;
60641;SDS011;46837;52.446;-1.930;2024-03-07T00:25:07;54.64;;;31.66;;
60641;SDS011;46837;52.446;-1.930;2024-03-07T00:26:07;60.18;;;33.70;;
60641;SDS011;46837;52.446;-1.930;2024-03-07T00:27:07;52.52;;;31.14;;
60641;SDS011;46837;52.446;-1.930;2024-03-07T00:28:07;57.84;;;34.18;;
60641;SDS011;46837;52.446;-1.930;2024-03-07T00:29:07;64.56;;;34.46;;
60641;SDS011;46837;52.446;-1.930;2024-03-07T00:30:07;53.62;;;30.78;;
60641;SDS011;46837;52.446;-1.930;2024-03-07T00:31:08;61.32;;;36.20;;
60641;SDS011;46837;52.446;-1.930;2024-03-07T00:32:07;59.46;;;34.92;;
60641;SDS011;46837;52.446;-1.930;2024-03-07T00:33:07;67.84;;;34.28;;
60641;SDS011;46837;52.446;-1.930;2024-03-07T00:34:07;52.30;;;31.12;;
60641;SDS011;46837;52.446;-1.930;2024-03-07T00:35:07;62.66;;;32.74;;
60641;SDS011;46837;52.446;-1.930;2024-03-07T00:36:07;73.52;;;35.38;;
60641;SDS011;46837;52.446;-1.930;2024-03-07T00:37:07;64.22;;;35.24;;
60641;SDS011;46837;52.446;-1.930;2024-03-07T00:38:07;57.60;;;31.82;;
60641;SDS011;46837;52.446;-1.930;2024-03-07T00:39:09;61.34;;;35.42;;
60641;SDS011;46837;52.446;-1.930;2024-03-07T00:40:07;51.44;;;30.24;;
60641;SDS011;46837;52.446;-1.930;2024-03-07T00:41:07;55.50;;;32.66;;
60641;SDS011;46837;52.446;-1.930;2024-03-07T00:42:07;58.78;;;32.38;;
60641;SDS011;46837;52.446;-1.930;2024-03-07T00:43:07;63.06;;;35.52;;
60641;SDS011;46837;52.446;-1.930;2024-03-07T00:44:07;62.08;;;35.42;;
60641;SDS011;46837;52.446;-1.930;2024-03-07T00:45:07;57.54;;;33.68;;
60641;SDS011;46837;52.446;-1.930;2024-03-07T00:46:07;65.64;;;34.92;;
60641;SDS011;46837;52.446;-1.930;2024-03-07T00:47:07;63.26;;;32.48;;
60641;SDS011;46837;52.446;-1.930;2024-03-07T00:48:07;68.54;;;35.86;;
60641;SDS011;46837;52.446;-1.930;2024-03-07T00:49:07;61.88;;;34.04;;
60641;SDS011;46837;52.446;-1.930;2024-03-07T00:50:07;56.80;;;32.88;;
60641;SDS011;46837;52.446;-1.930;2024-03-07T00:51:07;57.68;;;32.44;;
60641;SDS011;46837;52.446;-1.930;2024-03-07T00:52:07;61.66;;;33.88;;
60641;SDS011;46837;52.446;-1.930;2024-03-07T00:53:07;53.92;;;30.66;;
60641;SDS011;46837;52.446;-1.930;2024-03-07T00:54:07;60.64;;;32.70;;
60641;SDS011;46837;52.446;-1.930;2024-03-07T00:55:07;55.78;;;33.68;;
60641;SDS011;46837;52.446;-1.930;2024-03-07T00:56:07;62.16;;;35.28;;
60641;SDS011;46837;52.446;-1.930;2024-03-07T00:57:07;55.54;;;32.48;;
60641;SDS011;46837;52.446;-1.930;2024-03-07T00:58:07;50.88;;;32.48;;
60641;SDS011;46837;52.446;-1.930;2024-03-07T00:59:07;64.86;;;34.24;;
60641;SDS011;46837;52.446;-1.930;2024-03-07T01:00:07;53.86;;;30.56;;
60641;SDS011;46837;52.446;-1.930;2024-03-07T01:01:07;52.90;;;30.84;;
60641;SDS011;46837;52.446;-1.930;2024-03-07T01:02:07;55.50;;;31.66;;
60641;SDS011;46837;52.446;-1.930;2024-03-07T01:03:07;48.36;;;29.70;;
60641;SDS011;46837;52.446;-1.930;2024-03-07T01:04:07;57.60;;;31.94;;
60641;SDS011;46837;52.446;-1.930;2024-03-07T01:05:10;53.48;;;31.60;;
60641;SDS011;46837;52.446;-1.930;2024-03-07T01:06:07;70.34;;;34.44;;
60641;SDS011;46837;52.446;-1.930;2024-03-07T01:07:07;62.10;;;35.04;;
60641;SDS011;46837;52.446;-1.930;2024-03-07T01:08:07;52.60;;;32.72;;
60641;SDS011;46837;52.446;-1.930;2024-03-07T01:09:07;55.16;;;30.98;;
60641;SDS011;46837;52.446;-1.930;2024-03-07T01:10:07;49.78;;;29.30;;
60641;SDS011;46837;52.446;-1.930;2024-03-07T01:11:10;53.28;;;28.42;;
60641;SDS011;46837;52.446;-1.930;2024-03-07T01:12:07;54.44;;;31.60;;
60641;SDS011;46837;52.446;-1.930;2024-03-07T01:13:08;49.34;;;29.76;;
60641;SDS011;46837;52.446;-1.930;2024-03-07T01:14:07;67.44;;;33.98;;
60641;SDS011;46837;52.446;-1.930;2024-03-07T01:15:07;59.68;;;32.04;;
60641;SDS011;46837;52.446;-1.930;2024-03-07T01:16:07;60.14;;;33.94;;
60641;SDS011;46837;52.446;-1.930;2024-03-07T01:17:08;61.78;;;35.38;;
60641;SDS011;46837;52.446;-1.930;2024-03-07T01:18:08;68.14;;;36.18;;
60641;SDS011;46837;52.446;-1.930;2024-03-07T01:19:07;57.92;;;30.42;;
60641;SDS011;46837;52.446;-1.930;2024-03-07T01:20:07;57.96;;;34.22;;
60641;SDS011;46837;52.446;-1.930;2024-03-07T01:21:07;54.86;;;31.88;;
60641;SDS011;46837;52.446;-1.930;2024-03-07T01:22:07;58.74;;;33.76;;
60641;SDS011;46837;52.446;-1.930;2024-03-07T01:23:07;64.70;;;33.76;;
60641;SDS011;46837;52.446;-1.930;2024-03-07T01:24:07;75.10;;;33.80;;
60641;SDS011;46837;52.446;-1.930;2024-03-07T01:25:07;62.66;;;34.02;;
60641;SDS011;46837;52.446;-1.930;2024-03-07T01:26:07;59.36;;;31.00;;
60641;SDS011;46837;52.446;-1.930;2024-03-07T01:27:07;57.26;;;32.50;;
60641;SDS011;46837;52.446;-1.930;2024-03-07T01:28:07;61.36;;;34.02;;
60641;SDS011;46837;52.446;-1.930;2024-03-07T01:29:07;56.86;;;31.74;;
60641;SDS011;46837;52.446;-1.930;2024-03-07T01:30:08;58.66;;;31.32;;
60641;SDS011;46837;52.446;-1.930;2024-03-07T01:31:07;66.16;;;35.48;;
60641;SDS011;46837;52.446;-1.930;2024-03-07T01:32:07;63.24;;;33.32;;
60641;SDS011;46837;52.446;-1.930;2024-03-07T01:33:07;61.38;;;32.02;;
60641;SDS011;46837;52.446;-1.930;2024-03-07T01:34:07;68.02;;;34.64;;
60641;SDS011;46837;52.446;-1.930;2024-03-07T01:35:08;63.94;;;35.14;;
60641;SDS011;46837;52.446;-1.930;2024-03-07T01:36:07;62.38;;;30.46;;
60641;SDS011;46837;52.446;-1.930;2024-03-07T01:37:07;67.22;;;37.46;;
60641;SDS011;46837;52.446;-1.930;2024-03-07T01:38:07;55.06;;;31.42;;
60641;SDS011;46837;52.446;-1.930;2024-03-07T01:39:07;55.72;;;29.06;;
60641;SDS011;46837;52.446;-1.930;2024-03-07T01:40:07;61.64;;;32.52;;
60641;SDS011;46837;52.446;-1.930;2024-03-07T01:41:07;67.62;;;33.48;;
60641;SDS011;46837;52.446;-1.930;2024-03-07T01:42:07;61.72;;;33.10;;
60641;SDS011;46837;52.446;-1.930;2024-03-07T01:43:07;62.02;;;33.44;;
60641;SDS011;46837;52.446;-1.930;2024-03-07T01:44:07;56.40;;;31.94;;
60641;SDS011;46837;52.446;-1.930;2024-03-07T01:45:07;56.72;;;32.82;;
60641;SDS011;46837;52.446;-1.930;2024-03-07T01:46:07;54.50;;;31.86;;
60641;SDS011;46837;52.446;-1.930;2024-03-07T01:47:07;60.16;;;32.76;;
60641;SDS011;46837;52.446;-1.930;2024-03-07T01:48:09;70.12;;;35.64;;
60641;SDS011;46837;52.446;-1.930;2024-03-07T01:49:08;63.42;;;34.24;;
60641;SDS011;46837;52.446;-1.930;2024-03-07T01:50:07;56.56;;;31.72;;
60641;SDS011;46837;52.446;-1.930;2024-03-07T01:51:07;54.18;;;30.88;;
60641;SDS011;46837;52.446;-1.930;2024-03-07T01:52:07;59.48;;;32.06;;
60641;SDS011;46837;52.446;-1.930;2024-03-07T01:53:07;66.54;;;33.98;;
60641;SDS011;46837;52.446;-1.930;2024-03-07T01:54:07;49.22;;;29.70;;
60641;SDS011;46837;52.446;-1.930;2024-03-07T01:55:07;60.60;;;33.14;;
60641;SDS011;46837;52.446;-1.930;2024-03-07T01:56:07;55.84;;;31.52;;
60641;SDS011;46837;52.446;-1.930;2024-03-07T01:57:07;62.38;;;32.76;;
60641;SDS011;46837;52.446;-1.930;2024-03-07T01:58:07;55.90;;;32.60;;
60641;SDS011;46837;52.446;-1.930;2024-03-07T01:59:07;58.66;;;31.30;;
60641;SDS011;46837;52.446;-1.930;2024-03-07T02:00:07;58.16;;;32.90;;
60641;SDS011;46837;52.446;-1.930;2024-03-07T02:01:07;56.72;;;31.44;;
60641;SDS011;46837;52.446;-1.930;2024-03-07T02:02:07;61.16;;;32.78;;
60641;SDS011;46837;52.446;-1.930;2024-03-07T02:03:07;53.48;;;29.60;;
60641;SDS011;46837;52.446;-1.930;2024-03-07T02:04:07;59.24;;;29.78;;
60641;SDS011;46837;52.446;-1.930;2024-03-07T02:05:07;57.36;;;31.78;;
60641;SDS011;46837;52.446;-1.930;2024-03-07T02:06:07;70.88;;;36.02;;
60641;SDS011;46837;52.446;-1.930;2024-03-07T02:07:07;57.16;;;34.14;;
60641;SDS011;46837;52.446;-1.930;2024-03-07T02:08:07;61.06;;;32.12;;
60641;SDS011;46837;52.446;-1.930;2024-03-07T02:09:07;62.44;;;34.50;;
60641;SDS011;46837;52.446;-1.930;2024-03-07T02:10:07;55.30;;;29.44;;
60641;SDS011;46837;52.446;-1.930;2024-03-07T02:11:07;57.14;;;29.84;;
60641;SDS011;46837;52.446;-1.930;2024-03-07T02:12:07;58.30;;;31.08;;
60641;SDS011;46837;52.446;-1.930;2024-03-07T02:13:07;60.56;;;32.06;;
60641;SDS011;46837;52.446;-1.930;2024-03-07T02:14:07;69.00;;;34.68;;
60641;SDS011;46837;52.446;-1.930;2024-03-07T02:15:07;54.64;;;31.20;;
60641;SDS011;46837;52.446;-1.930;2024-03-07T02:16:07;51.06;;;29.46;;
60641;SDS011;46837;52.446;-1.930;2024-03-07T02:17:07;54.18;;;30.22;;
60641;SDS011;46837;52.446;-1.930;2024-03-07T02:18:07;45.16;;;26.38;;
60641;SDS011;46837;52.446;-1.930;2024-03-07T02:19:07;55.94;;;31.74;;
60641;SDS011;46837;52.446;-1.930;2024-03-07T02:20:08;52.12;;;26.78;;
60641;SDS011;46837;52.446;-1.930;2024-03-07T02:21:07;49.60;;;27.72;;
60641;SDS011;46837;52.446;-1.930;2024-03-07T02:22:07;50.60;;;28.58;;
60641;SDS011;46837;52.446;-1.930;2024-03-07T02:23:07;56.44;;;31.08;;
60641;SDS011;46837;52.446;-1.930;2024-03-07T02:24:07;45.54;;;26.62;;
60641;SDS011;46837;52.446;-1.930;2024-03-07T02:25:07;51.98;;;30.42;;
60641;SDS011;46837;52.446;-1.930;2024-03-07T02:26:07;61.40;;;32.04;;
60641;SDS011;46837;52.446;-1.930;2024-03-07T02:27:07;57.88;;;31.78;;
60641;SDS011;46837;52.446;-1.930;2024-03-07T02:28:07;60.38;;;30.06;;
60641;SDS011;46837;52.446;-1.930;2024-03-07T02:29:07;54.50;;;31.00;;
60641;SDS011;46837;52.446;-1.930;2024-03-07T02:30:09;52.82;;;31.00;;
60641;SDS011;46837;52.446;-1.930;2024-03-07T02:31:07;54.24;;;31.18;;
60641;SDS011;46837;52.446;-1.930;2024-03-07T02:32:07;65.84;;;33.86;;
60641;SDS011;46837;52.446;-1.930;2024-03-07T02:33:10;60.28;;;34.58;;
60641;SDS011;46837;52.446;-1.930;2024-03-07T02:34:08;58.98;;;32.76;;
60641;SDS011;46837;52.446;-1.930;2024-03-07T02:35:07;63.76;;;30.94;;
60641;SDS011;46837;52.446;-1.930;2024-03-07T02:36:07;55.42;;;32.00;;
60641;SDS011;46837;52.446;-1.930;2024-03-07T02:37:07;61.02;;;34.08;;
60641;SDS011;46837;52.446;-1.930;2024-03-07T02:38:09;53.76;;;29.44;;
60641;SDS011;46837;52.446;-1.930;2024-03-07T02:39:07;61.14;;;33.94;;
60641;SDS011;46837;52.446;-1.930;2024-03-07T02:40:07;58.00;;;31.20;;
60641;SDS011;46837;52.446;-1.930;2024-03-07T02:41:07;53.66;;;28.64;;
60641;SDS011;46837;52.446;-1.930;2024-03-07T02:42:07;54.06;;;30.52;;
60641;SDS011;46837;52.446;-1.930;2024-03-07T02:43:07;56.06;;;29.94;;
60641;SDS011;46837;52.446;-1.930;2024-03-07T02:44:07;50.88;;;28.46;;
60641;SDS011;46837;52.446;-1.930;2024-03-07T02:45:07;55.50;;;30.12;;
60641;SDS011;46837;52.446;-1.930;2024-03-07T02:46:07;52.00;;;29.24;;
60641;SDS011;46837;52.446;-1.930;2024-03-07T02:47:07;46.00;;;28.58;;
60641;SDS011;46837;52.446;-1.930;2024-03-07T02:48:10;52.34;;;29.96;;
60641;SDS011;46837;52.446;-1.930;2024-03-07T02:49:07;57.86;;;31.54;;
60641;SDS011;46837;52.446;-1.930;2024-03-07T02:50:07;67.28;;;31.92;;
60641;SDS011;46837;52.446;-1.930;2024-03-07T02:51:09;52.14;;;30.12;;
60641;SDS011;46837;52.446;-1.930;2024-03-07T02:52:09;57.62;;;33.14;;
60641;SDS011;46837;52.446;-1.930;2024-03-07T02:53:07;47.76;;;28.54;;
60641;SDS011;46837;52.446;-1.930;2024-03-07T02:54:07;54.40;;;32.30;;
60641;SDS011;46837;52.446;-1.930;2024-03-07T02:55:07;59.60;;;31.38;;
60641;SDS011;46837;52.446;-1.930;2024-03-07T02:56:09;51.60;;;28.80;;
60641;SDS011;46837;52.446;-1.930;2024-03-07T02:57:07;57.24;;;31.00;;
60641;SDS011;46837;52.446;-1.930;2024-03-07T02:58:07;64.70;;;33.28;;
60641;SDS011;46837;52.446;-1.930;2024-03-07T02:59:07;54.74;;;31.48;;
60641;SDS011;46837;52.446;-1.930;2024-03-07T03:00:11;51.44;;;29.04;;
60641;SDS011;46837;52.446;-1.930;2024-03-07T03:01:07;51.68;;;29.66;;
60641;SDS011;46837;52.446;-1.930;2024-03-07T03:02:07;60.78;;;32.02;;
60641;SDS011;46837;52.446;-1.930;2024-03-07T03:03:07;56.92;;;31.14;;
60641;SDS011;46837;52.446;-1.930;2024-03-07T03:04:07;49.88;;;27.96;;
60641;SDS011;46837;52.446;-1.930;2024-03-07T03:05:08;49.02;;;29.50;;
60641;SDS011;46837;52.446;-1.930;2024-03-07T03:06:07;62.76;;;32.36;;
60641;SDS011;46837;52.446;-1.930;2024-03-07T03:07:07;54.54;;;30.34;;
60641;SDS011;46837;52.446;-1.930;2024-03-07T03:08:07;53.76;;;29.84;;
60641;SDS011;46837;52.446;-1.930;2024-03-07T03:09:07;53.06;;;28.24;;
60641;SDS011;46837;52.446;-1.930;2024-03-07T03:10:09;53.68;;;29.08;;
60641;SDS011;46837;52.446;-1.930;2024-03-07T03:11:07;58.14;;;32.32;;
60641;SDS011;46837;52.446;-1.930;2024-03-07T03:12:07;57.02;;;29.50;;
60641;SDS011;46837;52.446;-1.930;2024-03-07T03:13:07;52.98;;;28.52;;
60641;SDS011;46837;52.446;-1.930;2024-03-07T03:14:07;64.36;;;31.98;;
60641;SDS011;46837;52.446;-1.930;2024-03-07T03:15:07;52.12;;;28.76;;
60641;SDS011;46837;52.446;-1.930;2024-03-07T03:16:08;57.24;;;31.36;;
60641;SDS011;46837;52.446;-1.930;2024-03-07T03:17:07;65.80;;;33.02;;
60641;SDS011;46837;52.446;-1.930;2024-03-07T03:18:07;60.98;;;31.82;;
60641;SDS011;46837;52.446;-1.930;2024-03-07T03:19:07;57.32;;;31.12;;
60641;SDS011;46837;52.446;-1.930;2024-03-07T03:20:11;66.84;;;30.56;;
60641;SDS011;46837;52.446;-1.930;2024-03-07T03:21:07;65.98;;;30.16;;
60641;SDS011;46837;52.446;-1.930;2024-03-07T03:22:07;57.12;;;31.66;;
60641;SDS011;46837;52.446;-1.930;2024-03-07T03:23:07;62.58;;;31.64;;
60641;SDS011;46837;52.446;-1.930;2024-03-07T03:24:08;62.68;;;30.40;;
60641;SDS011;46837;52.446;-1.930;2024-03-07T03:25:08;56.36;;;28.86;;
60641;SDS011;46837;52.446;-1.930;2024-03-07T03:26:07;60.86;;;29.42;;
60641;SDS011;46837;52.446;-1.930;2024-03-07T03:27:07;55.20;;;28.12;;
60641;SDS011;46837;52.446;-1.930;2024-03-07T03:28:07;47.38;;;26.96;;
60641;SDS011;46837;52.446;-1.930;2024-03-07T03:29:07;51.04;;;26.32;;
60641;SDS011;46837;52.446;-1.930;2024-03-07T03:30:07;50.22;;;26.96;;
60641;SDS011;46837;52.446;-1.930;2024-03-07T03:31:07;68.86;;;31.74;;
60641;SDS011;46837;52.446;-1.930;2024-03-07T03:32:07;50.84;;;28.30;;
60641;SDS011;46837;52.446;-1.930;2024-03-07T03:33:07;55.66;;;27.90;;
60641;SDS011;46837;52.446;-1.930;2024-03-07T03:34:07;57.44;;;28.44;;
60641;SDS011;46837;52.446;-1.930;2024-03-07T03:35:07;59.94;;;29.50;;
60641;SDS011;46837;52.446;-1.930;2024-03-07T03:36:07;50.02;;;26.96;;
60641;SDS011;46837;52.446;-1.930;2024-03-07T03:37:07;59.28;;;32.18;;
60641;SDS011;46837;52.446;-1.930;2024-03-07T03:38:07;56.50;;;29.40;;
60641;SDS011;46837;52.446;-1.930;2024-03-07T03:39:07;58.30;;;31.62;;
60641;SDS011;46837;52.446;-1.930;2024-03-07T03:40:07;56.36;;;31.30;;
60641;SDS011;46837;52.446;-1.930;2024-03-07T03:41:07;57.70;;;30.16;;
60641;SDS011;46837;52.446;-1.930;2024-03-07T03:42:07;63.62;;;30.44;;
60641;SDS011;46837;52.446;-1.930;2024-03-07T03:43:07;56.48;;;31.38;;
60641;SDS011;46837;52.446;-1.930;2024-03-07T03:44:07;65.32;;;32.60;;
60641;SDS011;46837;52.446;-1.930;2024-03-07T03:45:07;63.12;;;31.70;;
60641;SDS011;46837;52.446;-1.930;2024-03-07T03:46:09;75.14;;;31.74;;
60641;SDS011;46837;52.446;-1.930;2024-03-07T03:47:07;73.34;;;34.80;;
60641;SDS011;46837;52.446;-1.930;2024-03-07T03:48:07;56.68;;;30.44;;
60641;SDS011;46837;52.446;-1.930;2024-03-07T03:49:07;49.28;;;26.24;;
60641;SDS011;46837;52.446;-1.930;2024-03-07T03:50:07;70.54;;;32.86;;
60641;SDS011;46837;52.446;-1.930;2024-03-07T03:51:10;57.20;;;28.48;;
60641;SDS011;46837;52.446;-1.930;2024-03-07T03:52:07;52.54;;;28.62;;
60641;SDS011;46837;52.446;-1.930;2024-03-07T03:53:07;52.84;;;28.04;;
60641;SDS011;46837;52.446;-1.930;2024-03-07T03:54:07;57.46;;;28.78;;
60641;SDS011;46837;52.446;-1.930;2024-03-07T03:55:07;81.14;;;32.50;;
60641;SDS011;46837;52.446;-1.930;2024-03-07T03:56:09;73.38;;;31.02;;
60641;SDS011;46837;52.446;-1.930;2024-03-07T03:57:07;58.44;;;31.10;;
60641;SDS011;46837;52.446;-1.930;2024-03-07T03:58:09;50.96;;;26.36;;
60641;SDS011;46837;52.446;-1.930;2024-03-07T03:59:07;65.20;;;31.02;;
60641;SDS011;46837;52.446;-1.930;2024-03-07T04:00:10;57.40;;;29.40;;
60641;SDS011;46837;52.446;-1.930;2024-03-07T04:01:08;75.52;;;34.62;;
60641;SDS011;46837;52.446;-1.930;2024-03-07T04:02:07;71.16;;;33.40;;
60641;SDS011;46837;52.446;-1.930;2024-03-07T04:03:07;84.60;;;37.20;;
60641;SDS011;46837;52.446;-1.930;2024-03-07T04:04:07;95.20;;;35.78;;
60641;SDS011;46837;52.446;-1.930;2024-03-07T04:05:07;109.32;;;37.10;;
60641;SDS011;46837;52.446;-1.930;2024-03-07T04:06:07;92.04;;;36.32;;
60641;SDS011;46837;52.446;-1.930;2024-03-07T04:07:07;95.56;;;33.06;;
60641;SDS011;46837;52.446;-1.930;2024-03-07T04:08:07;98.38;;;36.56;;
60641;SDS011;46837;52.446;-1.930;2024-03-07T04:09:07;121.16;;;37.32;;
60641;SDS011;46837;52.446;-1.930;2024-03-07T04:10:09;122.10;;;36.16;;
60641;SDS011;46837;52.446;-1.930;2024-03-07T04:11:07;129.08;;;36.82;;
60641;SDS011;46837;52.446;-1.930;2024-03-07T04:12:07;113.98;;;38.32;;
60641;SDS011;46837;52.446;-1.930;2024-03-07T04:13:07;88.18;;;33.34;;
60641;SDS011;46837;52.446;-1.930;2024-03-07T04:14:07;114.18;;;36.24;;
60641;SDS011;46837;52.446;-1.930;2024-03-07T04:15:08;126.42;;;37.92;;
60641;SDS011;46837;52.446;-1.930;2024-03-07T04:16:07;92.78;;;35.02;;
60641;SDS011;46837;52.446;-1.930;2024-03-07T04:17:07;116.44;;;37.38;;
60641;SDS011;46837;52.446;-1.930;2024-03-07T04:18:07;122.86;;;38.94;;
60641;SDS011;46837;52.446;-1.930;2024-03-07T04:19:07;116.76;;;37.68;;
60641;SDS011;46837;52.446;-1.930;2024-03-07T04:20:07;130.94;;;38.04;;
60641;SDS011;46837;52.446;-1.930;2024-03-07T04:21:07;95.86;;;37.32;;
60641;SDS011;46837;52.446;-1.930;2024-03-07T04:22:07;106.70;;;40.86;;
60641;SDS011;46837;52.446;-1.930;2024-03-07T04:23:07;136.40;;;39.16;;
60641;SDS011;46837;52.446;-1.930;2024-03-07T04:24:07;104.72;;;39.34;;
60641;SDS011;46837;52.446;-1.930;2024-03-07T04:25:07;120.24;;;39.24;;
60641;SDS011;46837;52.446;-1.930;2024-03-07T04:26:07;111.40;;;39.18;;
60641;SDS011;46837;52.446;-1.930;2024-03-07T04:27:07;100.90;;;41.12;;
60641;SDS011;46837;52.446;-1.930;2024-03-07T04:28:07;98.96;;;38.94;;
60641;SDS011;46837;52.446;-1.930;2024-03-07T04:29:07;100.42;;;38.52;;
60641;SDS011;46837;52.446;-1.930;2024-03-07T04:30:07;125.68;;;41.40;;
60641;SDS011;46837;52.446;-1.930;2024-03-07T04:31:07;103.20;;;38.50;;
60641;SDS011;46837;52.446;-1.930;2024-03-07T04:32:07;139.10;;;41.52;;
60641;SDS011;46837;52.446;-1.930;2024-03-07T04:33:07;107.12;;;41.70;;
60641;SDS011;46837;52.446;-1.930;2024-03-07T04:34:07;111.80;;;40.70;;
60641;SDS011;46837;52.446;-1.930;2024-03-07T04:35:08;85.94;;;37.14;;
60641;SDS011;46837;52.446;-1.930;2024-03-07T04:36:07;111.50;;;36.72;;
60641;SDS011;46837;52.446;-1.930;2024-03-07T04:37:07;159.64;;;42.44;;
60641;SDS011;46837;52.446;-1.930;2024-03-07T04:38:10;101.74;;;38.46;;
60641;SDS011;46837;52.446;-1.930;2024-03-07T04:39:07;124.72;;;39.34;;
60641;SDS011;46837;52.446;-1.930;2024-03-07T04:40:11;132.20;;;41.18;;
60641;SDS011;46837;52.446;-1.930;2024-03-07T04:41:07;125.92;;;40.14;;
60641;SDS011;46837;52.446;-1.930;2024-03-07T04:42:07;85.28;;;34.80;;
60641;SDS011;46837;52.446;-1.930;2024-03-07T04:43:07;119.16;;;37.08;;
60641;SDS011;46837;52.446;-1.930;2024-03-07T04:44:07;102.42;;;35.86;;
60641;SDS011;46837;52.446;-1.930;2024-03-07T04:45:07;134.08;;;39.54;;
60641;SDS011;46837;52.446;-1.930;2024-03-07T04:46:07;103.92;;;37.90;;
60641;SDS011;46837;52.446;-1.930;2024-03-07T04:47:07;113.16;;;35.62;;
60641;SDS011;46837;52.446;-1.930;2024-03-07T04:48:07;136.70;;;38.38;;
60641;SDS011;46837;52.446;-1.930;2024-03-07T04:49:07;88.92;;;35.54;;
60641;SDS011;46837;52.446;-1.930;2024-03-07T04:50:07;92.96;;;37.26;;
60641;SDS011;46837;52.446;-1.930;2024-03-07T04:51:07;101.02;;;34.64;;
60641;SDS011;46837;52.446;-1.930;2024-03-07T04:52:07;90.18;;;35.00;;
60641;SDS011;46837;52.446;-1.930;2024-03-07T04:53:07;83.72;;;34.34;;
60641;SDS011;46837;52.446;-1.930;2024-03-07T04:54:07;100.58;;;37.00;;
60641;SDS011;46837;52.446;-1.930;2024-03-07T04:55:07;87.62;;;33.50;;
60641;SDS011;46837;52.446;-1.930;2024-03-07T04:56:07;73.10;;;32.10;;
60641;SDS011;46837;52.446;-1.930;2024-03-07T04:57:07;91.20;;;34.34;;
60641;SDS011;46837;52.446;-1.930;2024-03-07T04:58:07;85.84;;;32.12;;
60641;SDS011;46837;52.446;-1.930;2024-03-07T04:59:07;73.40;;;32.08;;
60641;SDS011;46837;52.446;-1.930;2024-03-07T05:00:07;76.90;;;31.14;;
60641;SDS011;46837;52.446;-1.930;2024-03-07T05:01:07;70.16;;;29.72;;
60641;SDS011;46837;52.446;-1.930;2024-03-07T05:02:07;72.12;;;29.76;;
60641;SDS011;46837;52.446;-1.930;2024-03-07T05:03:07;76.36;;;31.22;;
60641;SDS011;46837;52.446;-1.930;2024-03-07T05:04:07;82.18;;;30.88;;
60641;SDS011;46837;52.446;-1.930;2024-03-07T05:05:07;71.00;;;31.32;;
60641;SDS011;46837;52.446;-1.930;2024-03-07T05:06:07;68.62;;;31.36;;
60641;SDS011;46837;52.446;-1.930;2024-03-07T05:07:07;80.10;;;31.42;;
60641;SDS011;46837;52.446;-1.930;2024-03-07T05:08:07;68.08;;;30.08;;
60641;SDS011;46837;52.446;-1.930;2024-03-07T05:09:07;64.48;;;29.24;;
60641;SDS011;46837;52.446;-1.930;2024-03-07T05:10:07;64.84;;;29.28;;
60641;SDS011;46837;52.446;-1.930;2024-03-07T05:11:07;66.96;;;30.32;;
60641;SDS011;46837;52.446;-1.930;2024-03-07T05:12:07;71.24;;;30.74;;
60641;SDS011;46837;52.446;-1.930;2024-03-07T05:13:07;83.64;;;29.80;;
60641;SDS011;46837;52.446;-1.930;2024-03-07T05:14:07;87.66;;;32.18;;
60641;SDS011;46837;52.446;-1.930;2024-03-07T05:15:07;71.38;;;27.78;;
60641;SDS011;46837;52.446;-1.930;2024-03-07T05:16:07;74.26;;;31.46;;
60641;SDS011;46837;52.446;-1.930;2024-03-07T05:17:07;73.76;;;30.74;;
60641;SDS011;46837;52.446;-1.930;2024-03-07T05:18:07;82.80;;;32.00;;
60641;SDS011;46837;52.446;-1.930;2024-03-07T05:19:07;65.16;;;28.40;;
60641;SDS011;46837;52.446;-1.930;2024-03-07T05:20:10;81.54;;;30.20;;
60641;SDS011;46837;52.446;-1.930;2024-03-07T05:21:11;58.90;;;27.60;;
60641;SDS011;46837;52.446;-1.930;2024-03-07T05:22:07;72.28;;;29.06;;
60641;SDS011;46837;52.446;-1.930;2024-03-07T05:23:07;85.44;;;30.50;;
60641;SDS011;46837;52.446;-1.930;2024-03-07T05:24:07;81.96;;;29.22;;
60641;SDS011;46837;52.446;-1.930;2024-03-07T05:25:07;70.68;;;28.54;;
60641;SDS011;46837;52.446;-1.930;2024-03-07T05:26:07;80.90;;;29.12;;
60641;SDS011;46837;52.446;-1.930;2024-03-07T05:27:07;69.56;;;28.48;;
60641;SDS011;46837;52.446;-1.930;2024-03-07T05:28:07;68.88;;;29.06;;
60641;SDS011;46837;52.446;-1.930;2024-03-07T05:29:08;74.34;;;29.02;;
60641;SDS011;46837;52.446;-1.930;2024-03-07T05:30:12;65.84;;;30.58;;
60641;SDS011;46837;52.446;-1.930;2024-03-07T05:31:07;66.90;;;29.50;;
60641;SDS011;46837;52.446;-1.930;2024-03-07T05:33:07;64.40;;;28.78;;
60641;SDS011;46837;52.446;-1.930;2024-03-07T05:34:09;70.02;;;29.08;;
60641;SDS011;46837;52.446;-1.930;2024-03-07T05:35:07;66.04;;;27.80;;
60641;SDS011;46837;52.446;-1.930;2024-03-07T05:36:11;80.76;;;30.58;;
60641;SDS011;46837;52.446;-1.930;2024-03-07T05:37:07;78.08;;;30.60;;
60641;SDS011;46837;52.446;-1.930;2024-03-07T05:38:07;65.70;;;29.78;;
60641;SDS011;46837;52.446;-1.930;2024-03-07T05:39:11;78.38;;;31.18;;
60641;SDS011;46837;52.446;-1.930;2024-03-07T05:40:08;73.66;;;30.58;;
60641;SDS011;46837;52.446;-1.930;2024-03-07T05:41:07;78.48;;;30.44;;
60641;SDS011;46837;52.446;-1.930;2024-03-07T05:42:08;66.52;;;28.46;;
60641;SDS011;46837;52.446;-1.930;2024-03-07T05:43:07;60.40;;;28.12;;
60641;SDS011;46837;52.446;-1.930;2024-03-07T05:44:11;71.44;;;30.12;;
60641;SDS011;46837;52.446;-1.930;2024-03-07T05:45:09;63.10;;;29.34;;
60641;SDS011;46837;52.446;-1.930;2024-03-07T05:46:07;56.36;;;27.54;;